Norfolk, Virginia
Traffic Map
Current Weather Conditions
Norfolk, Virginia
Overcast Light Snow
Overcast
33°
Feels Like: 24°
Wind Chill: 24° Ceiling: 1400
Heat Index: 33° Visibility: 4mi
Dew Point: 29° Wind: 12mph
Humidity: 85% Direction: 340° (NNW)
Pressure: 29.67in Gusts: 22mph
Raw Report DataKORF 270751Z AUTO 34010G19KT 4SM -SN OVC014 01/M02 A2967 RMK AO2 SLP045 P0000 T00061017 TSNO
Traffic Incident Summary
Active as of:
Severity:
Category:
InformationThere was an issue retrieving the traffic information for this location. Please try a different location or try again shortly.
Advertisements
Track Severe Weather on mobile